sensor_id;sensor_type;location;lat;lon;timestamp;pressure;altitude;pressure_sealevel;temperature;humidity
30636;BME280;17400;52.392;9.750;2023-02-22T00:01:42;101007.22;;;10.08;100.00
30636;BME280;17400;52.392;9.750;2023-02-22T00:04:16;100997.41;;;10.07;100.00
30636;BME280;17400;52.392;9.750;2023-02-22T00:06:47;101001.50;;;10.03;100.00
30636;BME280;17400;52.392;9.750;2023-02-22T00:09:15;100996.47;;;10.00;100.00
30636;BME280;17400;52.392;9.750;2023-02-22T00:11:46;101002.91;;;9.99;100.00
30636;BME280;17400;52.392;9.750;2023-02-22T00:14:15;100999.34;;;9.98;100.00
30636;BME280;17400;52.392;9.750;2023-02-22T00:16:46;100997.13;;;10.02;100.00
30636;BME280;17400;52.392;9.750;2023-02-22T00:19:16;100998.63;;;10.05;100.00
30636;BME280;17400;52.392;9.750;2023-02-22T00:21:43;100999.44;;;10.05;100.00
30636;BME280;17400;52.392;9.750;2023-02-22T00:24:12;100991.81;;;9.94;100.00
30636;BME280;17400;52.392;9.750;2023-02-22T00:26:50;100990.97;;;9.93;100.00
30636;BME280;17400;52.392;9.750;2023-02-22T00:29:18;100991.63;;;9.80;100.00
30636;BME280;17400;52.392;9.750;2023-02-22T00:31:47;100997.47;;;9.69;100.00
30636;BME280;17400;52.392;9.750;2023-02-22T00:34:14;100988.44;;;9.62;100.00
30636;BME280;17400;52.392;9.750;2023-02-22T00:36:44;100984.38;;;9.58;100.00
30636;BME280;17400;52.392;9.750;2023-02-22T00:39:12;100983.75;;;9.56;100.00
30636;BME280;17400;52.392;9.750;2023-02-22T00:41:39;100982.72;;;9.57;100.00
30636;BME280;17400;52.392;9.750;2023-02-22T00:44:07;100983.66;;;9.64;100.00
30636;BME280;17400;52.392;9.750;2023-02-22T00:46:35;100983.13;;;9.69;100.00
30636;BME280;17400;52.392;9.750;2023-02-22T00:49:04;100978.00;;;9.74;100.00
30636;BME280;17400;52.392;9.750;2023-02-22T00:51:32;100965.41;;;9.81;100.00
30636;BME280;17400;52.392;9.750;2023-02-22T00:54:00;100965.22;;;9.82;100.00
30636;BME280;17400;52.392;9.750;2023-02-22T00:56:27;100961.50;;;9.83;100.00
30636;BME280;17400;52.392;9.750;2023-02-22T00:58:55;100963.81;;;9.87;100.00
30636;BME280;17400;52.392;9.750;2023-02-22T01:01:23;100962.50;;;9.82;100.00
30636;BME280;17400;52.392;9.750;2023-02-22T01:03:50;100960.84;;;9.81;100.00
30636;BME280;17400;52.392;9.750;2023-02-22T01:06:20;100952.72;;;9.81;100.00
30636;BME280;17400;52.392;9.750;2023-02-22T01:08:49;100954.88;;;9.86;100.00
30636;BME280;17400;52.392;9.750;2023-02-22T01:11:17;100955.53;;;9.88;100.00
30636;BME280;17400;52.392;9.750;2023-02-22T01:13:44;100960.94;;;9.88;100.00
30636;BME280;17400;52.392;9.750;2023-02-22T01:16:12;100953.88;;;9.87;100.00
30636;BME280;17400;52.392;9.750;2023-02-22T01:18:40;100950.09;;;9.88;100.00
30636;BME280;17400;52.392;9.750;2023-02-22T01:21:08;100948.44;;;9.87;100.00
30636;BME280;17400;52.392;9.750;2023-02-22T01:23:37;100945.66;;;9.80;100.00
30636;BME280;17400;52.392;9.750;2023-02-22T01:26:04;100950.22;;;9.80;100.00
30636;BME280;17400;52.392;9.750;2023-02-22T01:28:32;100947.03;;;9.76;100.00
30636;BME280;17400;52.392;9.750;2023-02-22T01:31:00;100950.97;;;9.74;100.00
30636;BME280;17400;52.392;9.750;2023-02-22T01:33:29;100948.09;;;9.75;100.00
30636;BME280;17400;52.392;9.750;2023-02-22T01:35:57;100944.50;;;9.75;100.00
30636;BME280;17400;52.392;9.750;2023-02-22T01:38:25;100943.88;;;9.73;100.00
30636;BME280;17400;52.392;9.750;2023-02-22T01:40:54;100938.91;;;9.76;100.00
30636;BME280;17400;52.392;9.750;2023-02-22T01:43:23;100937.63;;;9.72;100.00
30636;BME280;17400;52.392;9.750;2023-02-22T01:45:58;100936.97;;;9.70;100.00
30636;BME280;17400;52.392;9.750;2023-02-22T01:48:31;100930.72;;;9.70;100.00
30636;BME280;17400;52.392;9.750;2023-02-22T01:51:01;100930.28;;;9.66;100.00
30636;BME280;17400;52.392;9.750;2023-02-22T01:53:38;100933.16;;;9.64;100.00
30636;BME280;17400;52.392;9.750;2023-02-22T01:56:09;100923.19;;;9.65;100.00
30636;BME280;17400;52.392;9.750;2023-02-22T01:58:40;100922.34;;;9.64;100.00
30636;BME280;17400;52.392;9.750;2023-02-22T02:01:09;100935.69;;;9.66;100.00
30636;BME280;17400;52.392;9.750;2023-02-22T02:03:39;100924.88;;;9.66;100.00
30636;BME280;17400;52.392;9.750;2023-02-22T02:06:09;100928.59;;;9.65;100.00
30636;BME280;17400;52.392;9.750;2023-02-22T02:08:45;100921.13;;;9.67;100.00
30636;BME280;17400;52.392;9.750;2023-02-22T02:11:20;100921.97;;;9.67;100.00
30636;BME280;17400;52.392;9.750;2023-02-22T02:13:50;100920.09;;;9.68;100.00
30636;BME280;17400;52.392;9.750;2023-02-22T02:16:21;100912.75;;;9.62;100.00
30636;BME280;17400;52.392;9.750;2023-02-22T02:18:49;100913.97;;;9.59;100.00
30636;BME280;17400;52.392;9.750;2023-02-22T02:21:38;100914.50;;;9.55;100.00
30636;BME280;17400;52.392;9.750;2023-02-22T02:24:31;100911.69;;;9.48;100.00
30636;BME280;17400;52.392;9.750;2023-02-22T02:27:11;100913.38;;;9.34;100.00
30636;BME280;17400;52.392;9.750;2023-02-22T02:32:54;100912.31;;;9.35;100.00
30636;BME280;17400;52.392;9.750;2023-02-22T02:35:42;100915.69;;;9.37;100.00
30636;BME280;17400;52.392;9.750;2023-02-22T02:38:21;100917.38;;;9.38;100.00
30636;BME280;17400;52.392;9.750;2023-02-22T02:40:58;100910.00;;;9.32;100.00
30636;BME280;17400;52.392;9.750;2023-02-22T02:43:32;100906.00;;;9.28;100.00
30636;BME280;17400;52.392;9.750;2023-02-22T02:46:07;100912.88;;;9.15;100.00
30636;BME280;17400;52.392;9.750;2023-02-22T02:48:42;100908.19;;;9.09;100.00
30636;BME280;17400;52.392;9.750;2023-02-22T02:51:12;100906.31;;;9.10;100.00
30636;BME280;17400;52.392;9.750;2023-02-22T02:53:44;100900.91;;;9.10;100.00
30636;BME280;17400;52.392;9.750;2023-02-22T02:56:13;100899.91;;;9.11;100.00
30636;BME280;17400;52.392;9.750;2023-02-22T02:58:44;100905.13;;;9.12;100.00
30636;BME280;17400;52.392;9.750;2023-02-22T03:01:20;100896.38;;;9.10;100.00
30636;BME280;17400;52.392;9.750;2023-02-22T03:04:19;100893.69;;;9.10;100.00
30636;BME280;17400;52.392;9.750;2023-02-22T03:09:47;100886.97;;;9.06;100.00
30636;BME280;17400;52.392;9.750;2023-02-22T03:12:30;100883.59;;;9.04;100.00
30636;BME280;17400;52.392;9.750;2023-02-22T03:15:12;100875.69;;;9.03;100.00
30636;BME280;17400;52.392;9.750;2023-02-22T03:17:46;100886.81;;;8.99;100.00
30636;BME280;17400;52.392;9.750;2023-02-22T03:20:26;100881.81;;;8.96;100.00
30636;BME280;17400;52.392;9.750;2023-02-22T03:23:02;100871.84;;;8.97;100.00
30636;BME280;17400;52.392;9.750;2023-02-22T03:25:33;100868.88;;;8.92;100.00
30636;BME280;17400;52.392;9.750;2023-02-22T03:28:05;100869.47;;;8.79;100.00
30636;BME280;17400;52.392;9.750;2023-02-22T03:30:39;100864.72;;;8.81;100.00
30636;BME280;17400;52.392;9.750;2023-02-22T03:33:11;100869.00;;;8.75;100.00
30636;BME280;17400;52.392;9.750;2023-02-22T03:35:45;100863.59;;;8.75;100.00
30636;BME280;17400;52.392;9.750;2023-02-22T03:38:15;100859.88;;;8.76;100.00
30636;BME280;17400;52.392;9.750;2023-02-22T03:40:48;100861.25;;;8.72;100.00
30636;BME280;17400;52.392;9.750;2023-02-22T03:43:21;100859.28;;;8.66;100.00
30636;BME280;17400;52.392;9.750;2023-02-22T03:45:50;100864.16;;;8.71;100.00
30636;BME280;17400;52.392;9.750;2023-02-22T03:48:23;100866.56;;;8.65;100.00
30636;BME280;17400;52.392;9.750;2023-02-22T03:50:55;100863.00;;;8.65;100.00
30636;BME280;17400;52.392;9.750;2023-02-22T03:53:24;100864.31;;;8.69;100.00
30636;BME280;17400;52.392;9.750;2023-02-22T03:55:53;100863.47;;;8.69;100.00
30636;BME280;17400;52.392;9.750;2023-02-22T03:58:27;100866.38;;;8.67;100.00
30636;BME280;17400;52.392;9.750;2023-02-22T04:00:57;100855.28;;;8.62;100.00
30636;BME280;17400;52.392;9.750;2023-02-22T04:03:25;100860.66;;;8.62;100.00
30636;BME280;17400;52.392;9.750;2023-02-22T04:05:54;100857.59;;;8.65;100.00
30636;BME280;17400;52.392;9.750;2023-02-22T04:08:22;100854.56;;;8.68;100.00
30636;BME280;17400;52.392;9.750;2023-02-22T04:10:50;100852.19;;;8.65;100.00
30636;BME280;17400;52.392;9.750;2023-02-22T04:13:18;100855.56;;;8.67;100.00
30636;BME280;17400;52.392;9.750;2023-02-22T04:15:45;100843.56;;;8.70;100.00
30636;BME280;17400;52.392;9.750;2023-02-22T04:18:13;100853.59;;;8.61;100.00
30636;BME280;17400;52.392;9.750;2023-02-22T04:20:41;100848.38;;;8.59;100.00
30636;BME280;17400;52.392;9.750;2023-02-22T04:23:11;100846.03;;;8.56;100.00
30636;BME280;17400;52.392;9.750;2023-02-22T04:25:39;100841.00;;;8.53;100.00
30636;BME280;17400;52.392;9.750;2023-02-22T04:28:06;100841.00;;;8.53;100.00
30636;BME280;17400;52.392;9.750;2023-02-22T04:30:34;100835.88;;;8.58;100.00
30636;BME280;17400;52.392;9.750;2023-02-22T04:33:02;100830.69;;;8.57;100.00
30636;BME280;17400;52.392;9.750;2023-02-22T04:35:29;100832.84;;;8.61;100.00
30636;BME280;17400;52.392;9.750;2023-02-22T04:38:01;100839.38;;;8.67;100.00
30636;BME280;17400;52.392;9.750;2023-02-22T04:40:31;100833.59;;;8.70;100.00
30636;BME280;17400;52.392;9.750;2023-02-22T04:42:59;100835.28;;;8.71;100.00
30636;BME280;17400;52.392;9.750;2023-02-22T04:45:27;100840.94;;;8.61;100.00
30636;BME280;17400;52.392;9.750;2023-02-22T04:47:55;100843.22;;;8.41;100.00
30636;BME280;17400;52.392;9.750;2023-02-22T04:50:23;100840.59;;;8.33;100.00
30636;BME280;17400;52.392;9.750;2023-02-22T04:52:51;100850.06;;;8.29;100.00
30636;BME280;17400;52.392;9.750;2023-02-22T04:55:18;100839.66;;;8.26;100.00
30636;BME280;17400;52.392;9.750;2023-02-22T04:57:49;100843.00;;;8.28;100.00
30636;BME280;17400;52.392;9.750;2023-02-22T05:00:18;100838.75;;;8.33;100.00
30636;BME280;17400;52.392;9.750;2023-02-22T05:02:47;100832.50;;;8.33;100.00
30636;BME280;17400;52.392;9.750;2023-02-22T05:05:17;100834.19;;;8.34;100.00
30636;BME280;17400;52.392;9.750;2023-02-22T05:07:46;100842.81;;;8.29;100.00
30636;BME280;17400;52.392;9.750;2023-02-22T05:10:14;100840.97;;;8.30;100.00
30636;BME280;17400;52.392;9.750;2023-02-22T05:12:42;100841.63;;;8.32;100.00
30636;BME280;17400;52.392;9.750;2023-02-22T05:15:16;100836.09;;;8.25;100.00
30636;BME280;17400;52.392;9.750;2023-02-22T05:17:44;100835.97;;;8.18;100.00
30636;BME280;17400;52.392;9.750;2023-02-22T05:20:16;100837.00;;;8.17;100.00
30636;BME280;17400;52.392;9.750;2023-02-22T05:22:47;100834.06;;;8.27;100.00
30636;BME280;17400;52.392;9.750;2023-02-22T05:25:15;100827.97;;;8.33;100.00
30636;BME280;17400;52.392;9.750;2023-02-22T05:27:42;100825.28;;;8.33;100.00
30636;BME280;17400;52.392;9.750;2023-02-22T05:30:12;100817.53;;;8.30;100.00
30636;BME280;17400;52.392;9.750;2023-02-22T05:32:40;100816.41;;;8.25;100.00
30636;BME280;17400;52.392;9.750;2023-02-22T05:35:07;100815.00;;;8.29;100.00
30636;BME280;17400;52.392;9.750;2023-02-22T05:37:35;100818.41;;;8.23;100.00
30636;BME280;17400;52.392;9.750;2023-02-22T05:40:03;100826.06;;;8.11;100.00
30636;BME280;17400;52.392;9.750;2023-02-22T05:42:33;100822.44;;;8.04;100.00
30636;BME280;17400;52.392;9.750;2023-02-22T05:45:00;100818.09;;;7.94;100.00
30636;BME280;17400;52.392;9.750;2023-02-22T05:47:30;100823.00;;;7.91;100.00
30636;BME280;17400;52.392;9.750;2023-02-22T05:49:58;100812.16;;;7.99;100.00
30636;BME280;17400;52.392;9.750;2023-02-22T05:52:27;100815.22;;;7.96;100.00
30636;BME280;17400;52.392;9.750;2023-02-22T05:54:54;100811.91;;;7.86;100.00
30636;BME280;17400;52.392;9.750;2023-02-22T05:57:22;100814.28;;;7.80;100.00
30636;BME280;17400;52.392;9.750;2023-02-22T05:59:50;100812.63;;;7.79;100.00
30636;BME280;17400;52.392;9.750;2023-02-22T06:02:17;100803.69;;;7.79;100.00
30636;BME280;17400;52.392;9.750;2023-02-22T06:04:47;100801.16;;;7.77;100.00
30636;BME280;17400;52.392;9.750;2023-02-22T06:07:14;100802.50;;;7.81;100.00
30636;BME280;17400;52.392;9.750;2023-02-22T06:09:42;100803.72;;;7.71;100.00
30636;BME280;17400;52.392;9.750;2023-02-22T06:12:11;100803.28;;;7.59;100.00
30636;BME280;17400;52.392;9.750;2023-02-22T06:14:38;100809.00;;;7.64;100.00
30636;BME280;17400;52.392;9.750;2023-02-22T06:17:12;100806.13;;;7.65;100.00
30636;BME280;17400;52.392;9.750;2023-02-22T06:19:41;100809.16;;;7.62;100.00
30636;BME280;17400;52.392;9.750;2023-02-22T06:22:15;100812.38;;;7.66;100.00
30636;BME280;17400;52.392;9.750;2023-02-22T06:24:43;100803.22;;;7.75;100.00
30636;BME280;17400;52.392;9.750;2023-02-22T06:27:10;100799.53;;;7.68;100.00
30636;BME280;17400;52.392;9.750;2023-02-22T06:29:38;100805.47;;;7.63;100.00
30636;BME280;17400;52.392;9.750;2023-02-22T06:32:06;100803.66;;;7.47;100.00
30636;BME280;17400;52.392;9.750;2023-02-22T06:34:33;100802.63;;;7.57;100.00
30636;BME280;17400;52.392;9.750;2023-02-22T06:37:01;100799.94;;;7.57;100.00
30636;BME280;17400;52.392;9.750;2023-02-22T06:39:30;100804.44;;;7.64;100.00
30636;BME280;17400;52.392;9.750;2023-02-22T06:41:58;100795.56;;;7.56;100.00
30636;BME280;17400;52.392;9.750;2023-02-22T06:44:26;100802.09;;;7.61;100.00
30636;BME280;17400;52.392;9.750;2023-02-22T06:46:54;100799.22;;;7.63;100.00
30636;BME280;17400;52.392;9.750;2023-02-22T06:49:21;100802.59;;;7.65;100.00
30636;BME280;17400;52.392;9.750;2023-02-22T06:51:49;100805.28;;;7.65;100.00
30636;BME280;17400;52.392;9.750;2023-02-22T06:54:17;100807.63;;;7.68;100.00
30636;BME280;17400;52.392;9.750;2023-02-22T06:56:46;100815.88;;;7.66;100.00
30636;BME280;17400;52.392;9.750;2023-02-22T06:59:15;100805.25;;;7.73;100.00
30636;BME280;17400;52.392;9.750;2023-02-22T07:01:43;100808.25;;;7.78;100.00
30636;BME280;17400;52.392;9.750;2023-02-22T07:04:10;100801.16;;;7.77;100.00
30636;BME280;17400;52.392;9.750;2023-02-22T07:06:38;100803.50;;;7.80;100.00
30636;BME280;17400;52.392;9.750;2023-02-22T07:09:09;100805.91;;;7.75;100.00
30636;BME280;17400;52.392;9.750;2023-02-22T07:11:38;100811.25;;;7.83;100.00
30636;BME280;17400;52.392;9.750;2023-02-22T07:14:07;100807.56;;;7.84;100.00
30636;BME280;17400;52.392;9.750;2023-02-22T07:16:35;100813.22;;;7.90;100.00
30636;BME280;17400;52.392;9.750;2023-02-22T07:19:03;100813.53;;;7.95;100.00
30636;BME280;17400;52.392;9.750;2023-02-22T07:21:30;100812.34;;;7.97;100.00
30636;BME280;17400;52.392;9.750;2023-02-22T07:23:58;100809.47;;;7.99;100.00
30636;BME280;17400;52.392;9.750;2023-02-22T07:26:26;100803.00;;;8.08;100.00
30636;BME280;17400;52.392;9.750;2023-02-22T07:28:54;100795.41;;;8.12;100.00
30636;BME280;17400;52.392;9.750;2023-02-22T07:31:23;100802.13;;;8.16;100.00
30636;BME280;17400;52.392;9.750;2023-02-22T07:33:50;100803.28;;;8.22;100.00
30636;BME280;17400;52.392;9.750;2023-02-22T07:36:18;100795.00;;;8.23;100.00
30636;BME280;17400;52.392;9.750;2023-02-22T07:38:46;100801.22;;;8.24;100.00
30636;BME280;17400;52.392;9.750;2023-02-22T07:41:13;100799.06;;;8.19;100.00
30636;BME280;17400;52.392;9.750;2023-02-22T07:43:42;100793.81;;;8.26;100.00
30636;BME280;17400;52.392;9.750;2023-02-22T07:46:09;100788.03;;;8.29;100.00
30636;BME280;17400;52.392;9.750;2023-02-22T07:48:38;100792.91;;;8.33;100.00
30636;BME280;17400;52.392;9.750;2023-02-22T07:51:06;100799.44;;;8.39;100.00
30636;BME280;17400;52.392;9.750;2023-02-22T07:53:35;100794.88;;;8.40;100.00
30636;BME280;17400;52.392;9.750;2023-02-22T07:56:04;100799.44;;;8.39;100.00
30636;BME280;17400;52.392;9.750;2023-02-22T07:58:34;100797.03;;;8.44;100.00
30636;BME280;17400;52.392;9.750;2023-02-22T08:01:02;100796.44;;;8.34;100.00
30636;BME280;17400;52.392;9.750;2023-02-22T08:03:32;100786.78;;;8.40;100.00
30636;BME280;17400;52.392;9.750;2023-02-22T08:06:05;100786.56;;;8.49;100.00
30636;BME280;17400;52.392;9.750;2023-02-22T08:08:33;100792.41;;;8.53;100.00
30636;BME280;17400;52.392;9.750;2023-02-22T08:11:01;100781.41;;;8.63;100.00
30636;BME280;17400;52.392;9.750;2023-02-22T08:13:28;100780.38;;;8.64;100.00
30636;BME280;17400;52.392;9.750;2023-02-22T08:15:56;100781.19;;;8.64;100.00
30636;BME280;17400;52.392;9.750;2023-02-22T08:18:24;100781.84;;;8.66;100.00
30636;BME280;17400;52.392;9.750;2023-02-22T08:20:52;100784.38;;;8.68;100.00
30636;BME280;17400;52.392;9.750;2023-02-22T08:23:23;100779.34;;;8.65;100.00
30636;BME280;17400;52.392;9.750;2023-02-22T08:25:52;100779.09;;;8.75;100.00
30636;BME280;17400;52.392;9.750;2023-02-22T08:28:22;100775.53;;;8.74;100.00
30636;BME280;17400;52.392;9.750;2023-02-22T08:30:50;100775.75;;;8.88;100.00
30636;BME280;17400;52.392;9.750;2023-02-22T08:33:18;100781.44;;;8.93;100.00
30636;BME280;17400;52.392;9.750;2023-02-22T08:35:46;100774.28;;;9.00;100.00
30636;BME280;17400;52.392;9.750;2023-02-22T08:38:18;100770.56;;;9.01;100.00
30636;BME280;17400;52.392;9.750;2023-02-22T08:40:52;100775.19;;;9.07;100.00
30636;BME280;17400;52.392;9.750;2023-02-22T08:43:20;100769.78;;;9.07;100.00
30636;BME280;17400;52.392;9.750;2023-02-22T08:45:49;100774.00;;;9.10;100.00
30636;BME280;17400;52.392;9.750;2023-02-22T08:48:18;100764.03;;;9.10;100.00
30636;BME280;17400;52.392;9.750;2023-02-22T08:50:46;100769.06;;;9.13;100.00
30636;BME280;17400;52.392;9.750;2023-02-22T08:53:15;100764.97;;;9.17;100.00
30636;BME280;17400;52.392;9.750;2023-02-22T08:55:43;100759.19;;;9.21;100.00
30636;BME280;17400;52.392;9.750;2023-02-22T08:58:12;100762.34;;;9.24;100.00
30636;BME280;17400;52.392;9.750;2023-02-22T09:00:41;100754.91;;;9.26;100.00
30636;BME280;17400;52.392;9.750;2023-02-22T09:03:11;100758.53;;;9.33;100.00
30636;BME280;17400;52.392;9.750;2023-02-22T09:05:40;100759.38;;;9.34;100.00
30636;BME280;17400;52.392;9.750;2023-02-22T09:08:08;100761.03;;;9.35;100.00
30636;BME280;17400;52.392;9.750;2023-02-22T09:10:36;100766.44;;;9.35;100.00
30636;BME280;17400;52.392;9.750;2023-02-22T09:13:04;100762.91;;;9.34;100.00
30636;BME280;17400;52.392;9.750;2023-02-22T09:15:33;100759.00;;;9.37;100.00
30636;BME280;17400;52.392;9.750;2023-02-22T09:18:03;100757.97;;;9.38;100.00
30636;BME280;17400;52.392;9.750;2023-02-22T09:20:33;100760.09;;;9.43;100.00
30636;BME280;17400;52.392;9.750;2023-02-22T09:23:02;100754.88;;;9.41;100.00
30636;BME280;17400;52.392;9.750;2023-02-22T09:25:31;100753.94;;;9.49;100.00
30636;BME280;17400;52.392;9.750;2023-02-22T09:28:00;100750.38;;;9.48;100.00
30636;BME280;17400;52.392;9.750;2023-02-22T09:30:29;100755.03;;;9.55;100.00
30636;BME280;17400;52.392;9.750;2023-02-22T09:33:02;100745.53;;;9.59;100.00
30636;BME280;17400;52.392;9.750;2023-02-22T09:35:31;100744.31;;;9.61;100.00
30636;BME280;17400;52.392;9.750;2023-02-22T09:38:03;100748.50;;;9.64;100.00
30636;BME280;17400;52.392;9.750;2023-02-22T09:40:32;100744.59;;;9.66;100.00
30636;BME280;17400;52.392;9.750;2023-02-22T09:43:17;100746.53;;;9.73;100.00
30636;BME280;17400;52.392;9.750;2023-02-22T09:46:00;100747.22;;;9.81;100.00
30636;BME280;17400;52.392;9.750;2023-02-22T09:48:35;100743.03;;;9.94;100.00
30636;BME280;17400;52.392;9.750;2023-02-22T09:51:14;100743.91;;;10.01;100.00
30636;BME280;17400;52.392;9.750;2023-02-22T09:53:45;100735.44;;;10.04;100.00
30636;BME280;17400;52.392;9.750;2023-02-22T09:56:17;100748.16;;;10.10;100.00
30636;BME280;17400;52.392;9.750;2023-02-22T09:58:47;100739.41;;;10.08;100.00
30636;BME280;17400;52.392;9.750;2023-02-22T10:01:23;100743.22;;;10.14;100.00
30636;BME280;17400;52.392;9.750;2023-02-22T10:03:59;100740.75;;;10.19;100.00
30636;BME280;17400;52.392;9.750;2023-02-22T10:06:31;100742.50;;;10.27;100.00
30636;BME280;17400;52.392;9.750;2023-02-22T10:09:01;100740.22;;;10.30;100.00
30636;BME280;17400;52.392;9.750;2023-02-22T10:11:42;100734.66;;;10.32;100.00
30636;BME280;17400;52.392;9.750;2023-02-22T10:14:34;100721.56;;;10.36;100.00
30636;BME280;17400;52.392;9.750;2023-02-22T10:17:15;100722.28;;;10.44;100.00
30636;BME280;17400;52.392;9.750;2023-02-22T10:19:56;100716.88;;;10.44;100.00
30636;BME280;17400;52.392;9.750;2023-02-22T10:22:36;100717.69;;;10.45;100.00
30636;BME280;17400;52.392;9.750;2023-02-22T10:25:10;100711.91;;;10.48;100.00
30636;BME280;17400;52.392;9.750;2023-02-22T10:27:41;100709.00;;;10.49;100.00
30636;BME280;17400;52.392;9.750;2023-02-22T10:30:18;100709.44;;;10.53;100.00
30636;BME280;17400;52.392;9.750;2023-02-22T10:32:56;100705.94;;;10.59;100.00
30636;BME280;17400;52.392;9.750;2023-02-22T10:35:29;100696.22;;;10.65;100.00
30636;BME280;17400;52.392;9.750;2023-02-22T10:38:12;100701.63;;;10.65;100.00
30636;BME280;17400;52.392;9.750;2023-02-22T10:40:45;100694.59;;;10.77;100.00
30636;BME280;17400;52.392;9.750;2023-02-22T10:43:14;100694.00;;;10.82;100.00
30636;BME280;17400;52.392;9.750;2023-02-22T10:45:42;100685.69;;;10.83;100.00
30636;BME280;17400;52.392;9.750;2023-02-22T10:48:13;100691.31;;;10.89;100.00
30636;BME280;17400;52.392;9.750;2023-02-22T10:50:46;100682.38;;;10.88;100.00
30636;BME280;17400;52.392;9.750;2023-02-22T10:53:15;100682.00;;;10.98;100.00
30636;BME280;17400;52.392;9.750;2023-02-22T10:56:06;100680.59;;;11.02;100.00
30636;BME280;17400;52.392;9.750;2023-02-22T10:58:40;100677.50;;;11.12;100.00
30636;BME280;17400;52.392;9.750;2023-02-22T11:01:24;100671.88;;;11.13;100.00
30636;BME280;17400;52.392;9.750;2023-02-22T11:03:57;100677.31;;;11.20;100.00
30636;BME280;17400;52.392;9.750;2023-02-22T11:06:27;100666.69;;;11.25;100.00
30636;BME280;17400;52.392;9.750;2023-02-22T11:09:05;100667.72;;;11.24;100.00
30636;BME280;17400;52.392;9.750;2023-02-22T11:11:36;100664.44;;;11.29;100.00
30636;BME280;17400;52.392;9.750;2023-02-22T11:14:05;100665.25;;;11.29;100.00
30636;BME280;17400;52.392;9.750;2023-02-22T11:16:38;100662.97;;;11.33;100.00
30636;BME280;17400;52.392;9.750;2023-02-22T11:19:27;100665.69;;;11.33;100.00
30636;BME280;17400;52.392;9.750;2023-02-22T11:22:08;100654.88;;;11.40;100.00
30636;BME280;17400;52.392;9.750;2023-02-22T11:24:43;100656.13;;;11.44;100.00
30636;BME280;17400;52.392;9.750;2023-02-22T11:27:26;100652.41;;;11.52;100.00
30636;BME280;17400;52.392;9.750;2023-02-22T11:29:56;100644.28;;;11.58;100.00
30636;BME280;17400;52.392;9.750;2023-02-22T11:32:25;100648.69;;;11.66;100.00
30636;BME280;17400;52.392;9.750;2023-02-22T11:35:31;100634.31;;;11.72;100.00
30636;BME280;17400;52.392;9.750;2023-02-22T11:38:15;100638.28;;;11.76;100.00
30636;BME280;17400;52.392;9.750;2023-02-22T11:40:44;100634.91;;;11.74;100.00
30636;BME280;17400;52.392;9.750;2023-02-22T11:43:15;100638.88;;;11.78;100.00
30636;BME280;17400;52.392;9.750;2023-02-22T11:45:58;100624.28;;;11.79;100.00
30636;BME280;17400;52.392;9.750;2023-02-22T11:48:30;100624.94;;;11.81;100.00
30636;BME280;17400;52.392;9.750;2023-02-22T11:51:09;100622.22;;;11.81;100.00
30636;BME280;17400;52.392;9.750;2023-02-22T11:53:55;100616.56;;;11.83;100.00
30636;BME280;17400;52.392;9.750;2023-02-22T11:56:30;100622.00;;;11.83;100.00
30636;BME280;17400;52.392;9.750;2023-02-22T11:59:11;100620.31;;;11.82;100.00
30636;BME280;17400;52.392;9.750;2023-02-22T12:01:45;100626.78;;;11.88;100.00
30636;BME280;17400;52.392;9.750;2023-02-22T12:07:20;100621.19;;;11.96;100.00
30636;BME280;17400;52.392;9.750;2023-02-22T12:10:00;100609.94;;;11.99;100.00
30636;BME280;17400;52.392;9.750;2023-02-22T12:12:38;100609.28;;;12.04;100.00
30636;BME280;17400;52.392;9.750;2023-02-22T12:15:12;100607.00;;;12.07;100.00
30636;BME280;17400;52.392;9.750;2023-02-22T12:17:50;100601.16;;;12.10;100.00
30636;BME280;17400;52.392;9.750;2023-02-22T12:20:30;100594.88;;;12.16;100.00
30636;BME280;17400;52.392;9.750;2023-02-22T12:23:06;100597.81;;;12.22;100.00
30636;BME280;17400;52.392;9.750;2023-02-22T12:25:49;100593.00;;;12.24;100.00
30636;BME280;17400;52.392;9.750;2023-02-22T12:28:23;100592.38;;;12.28;100.00
30636;BME280;17400;52.392;9.750;2023-02-22T12:31:03;100590.06;;;12.32;100.00
30636;BME280;17400;52.392;9.750;2023-02-22T12:33:45;100586.09;;;12.35;100.00
30636;BME280;17400;52.392;9.750;2023-02-22T12:36:18;100586.91;;;12.35;100.00
30636;BME280;17400;52.392;9.750;2023-02-22T12:38:51;100582.13;;;12.37;100.00
30636;BME280;17400;52.392;9.750;2023-02-22T12:41:27;100583.59;;;12.33;100.00
30636;BME280;17400;52.392;9.750;2023-02-22T12:44:01;100577.72;;;12.43;100.00
30636;BME280;17400;52.392;9.750;2023-02-22T12:46:35;100572.50;;;12.48;100.00
30636;BME280;17400;52.392;9.750;2023-02-22T12:49:09;100571.84;;;12.53;100.00
30636;BME280;17400;52.392;9.750;2023-02-22T12:51:43;100576.00;;;12.55;100.00
30636;BME280;17400;52.392;9.750;2023-02-22T12:54:19;100570.56;;;12.55;100.00
30636;BME280;17400;52.392;9.750;2023-02-22T12:56:53;100566.00;;;12.56;100.00
30636;BME280;17400;52.392;9.750;2023-02-22T12:59:27;100568.50;;;12.57;100.00
30636;BME280;17400;52.392;9.750;2023-02-22T13:01:59;100560.31;;;12.64;100.00
30636;BME280;17400;52.392;9.750;2023-02-22T13:04:29;100553.84;;;12.65;100.00
30636;BME280;17400;52.392;9.750;2023-02-22T13:07:19;100552.59;;;12.68;100.00
30636;BME280;17400;52.392;9.750;2023-02-22T13:09:57;100552.13;;;12.77;100.00
30636;BME280;17400;52.392;9.750;2023-02-22T13:12:39;100549.59;;;12.82;100.00
30636;BME280;17400;52.392;9.750;2023-02-22T13:15:16;100547.91;;;12.81;100.00
30636;BME280;17400;52.392;9.750;2023-02-22T13:17:49;100551.03;;;12.85;100.00
30636;BME280;17400;52.392;9.750;2023-02-22T13:20:24;100536.19;;;12.88;100.00